createdAt,value
2023-03-12T00:01:45.070Z,2.37
2023-03-12T00:04:11.948Z,1.97
2023-03-12T00:06:38.507Z,2.37
2023-03-12T00:09:05.169Z,1.87
2023-03-12T00:11:31.689Z,2.00
2023-03-12T00:14:03.090Z,2.00
2023-03-12T00:16:30.285Z,2.50
2023-03-12T00:18:56.914Z,1.90
2023-03-12T00:21:23.967Z,1.97
2023-03-12T00:23:51.529Z,1.90
2023-03-12T00:26:18.726Z,1.60
2023-03-12T00:28:45.258Z,2.00
2023-03-12T00:31:35.696Z,1.80
2023-03-12T00:34:05.343Z,1.70
2023-03-12T00:36:35.065Z,1.60
2023-03-12T00:39:01.753Z,1.80
2023-03-12T00:45:02.216Z,1.60
2023-03-12T00:47:28.824Z,1.60
2023-03-12T00:49:55.508Z,1.67
2023-03-12T00:52:22.042Z,1.80
2023-03-12T00:54:48.546Z,1.73
2023-03-12T00:57:15.000Z,1.33
2023-03-12T00:59:42.345Z,1.40
2023-03-12T01:02:09.142Z,1.20
2023-03-12T01:04:35.635Z,0.90
2023-03-12T01:07:02.221Z,0.90
2023-03-12T01:09:28.723Z,0.80
2023-03-12T01:11:55.234Z,0.73
2023-03-12T01:17:55.317Z,0.90
2023-03-12T01:20:23.197Z,0.90
2023-03-12T01:22:49.891Z,0.87
2023-03-12T01:25:16.374Z,1.10
2023-03-12T01:27:42.900Z,1.07
2023-03-12T01:30:10.145Z,1.50
2023-03-12T01:32:36.737Z,1.37
2023-03-12T01:35:03.427Z,1.00
2023-03-12T01:37:29.973Z,0.93
2023-03-12T01:39:56.491Z,1.00
2023-03-12T01:42:22.990Z,1.27
2023-03-12T01:44:49.462Z,2.13
2023-03-12T01:47:15.965Z,1.47
2023-03-12T01:49:42.542Z,1.20
2023-03-12T01:52:14.495Z,1.13
2023-03-12T01:55:03.209Z,1.20
2023-03-12T01:57:49.943Z,1.40
2023-03-12T02:00:25.240Z,0.70
2023-03-12T02:02:52.423Z,0.70
2023-03-12T02:05:32.275Z,1.10
2023-03-12T02:07:58.750Z,0.80
2023-03-12T02:10:25.901Z,1.07
2023-03-12T02:12:52.951Z,1.20
2023-03-12T02:15:19.751Z,1.30
2023-03-12T02:17:46.303Z,1.00
2023-03-12T02:20:20.572Z,1.20
2023-03-12T02:22:53.110Z,1.50
2023-03-12T02:25:49.050Z,1.23
2023-03-12T02:28:16.792Z,1.13
2023-03-12T02:30:46.134Z,1.30
2023-03-12T02:33:13.182Z,1.50
2023-03-12T02:35:39.664Z,1.27
2023-03-12T02:38:26.146Z,1.10
2023-03-12T02:44:33.576Z,1.47
2023-03-12T02:47:00.990Z,1.03
2023-03-12T02:49:28.839Z,1.20
2023-03-12T02:51:55.927Z,1.30
2023-03-12T02:54:23.540Z,1.50
2023-03-12T02:56:52.826Z,1.30
2023-03-12T02:59:21.900Z,1.43
2023-03-12T03:01:52.145Z,1.13
2023-03-12T03:04:18.675Z,0.80
2023-03-12T03:10:31.766Z,1.23
2023-03-12T03:12:58.451Z,1.30
2023-03-12T03:15:25.350Z,1.10
2023-03-12T03:17:51.864Z,1.00
2023-03-12T03:20:18.595Z,1.20
2023-03-12T03:23:00.726Z,1.23
2023-03-12T03:25:27.405Z,1.27
2023-03-12T03:35:03.437Z,0.90
2023-03-12T03:37:29.997Z,1.03
2023-03-12T03:39:56.484Z,0.83
2023-03-12T03:42:23.278Z,1.53
2023-03-12T03:44:49.783Z,1.20
2023-03-12T03:47:16.383Z,1.23
2023-03-12T03:49:42.967Z,1.30
2023-03-12T03:52:09.494Z,1.27
2023-03-12T03:54:36.124Z,0.90
2023-03-12T03:57:02.673Z,1.27
2023-03-12T03:59:29.211Z,0.90
2023-03-12T04:01:59.550Z,1.07
2023-03-12T04:04:26.039Z,0.97
2023-03-12T04:06:52.588Z,0.70
2023-03-12T04:09:19.049Z,0.90
2023-03-12T04:11:45.576Z,1.57
2023-03-12T04:14:12.205Z,1.10
2023-03-12T04:16:38.774Z,1.60
2023-03-12T04:19:05.265Z,1.10
2023-03-12T04:21:31.804Z,1.57
2023-03-12T04:23:58.363Z,1.40
2023-03-12T04:26:24.936Z,0.97
2023-03-12T04:28:51.668Z,1.23
2023-03-12T04:31:18.227Z,1.20
2023-03-12T04:33:44.801Z,1.83
2023-03-12T04:36:12.194Z,1.10
2023-03-12T04:38:38.829Z,2.60
2023-03-12T04:41:07.825Z,3.17
2023-03-12T04:43:34.682Z,1.67
2023-03-12T04:46:01.317Z,3.20
2023-03-12T04:48:27.860Z,1.60
2023-03-12T04:50:54.737Z,0.90
2023-03-12T04:53:21.702Z,0.50
2023-03-12T04:55:48.310Z,0.67
2023-03-12T04:58:14.944Z,0.90
2023-03-12T05:00:41.713Z,3.73
2023-03-12T05:03:08.645Z,1.40
2023-03-12T05:05:35.962Z,0.80
2023-03-12T05:08:03.534Z,0.90
2023-03-12T05:10:30.059Z,0.53
2023-03-12T05:12:56.618Z,1.03
2023-03-12T05:15:23.269Z,0.77
2023-03-12T05:17:49.829Z,0.73
2023-03-12T05:20:17.931Z,0.77
2023-03-12T05:22:44.741Z,1.20
2023-03-12T05:25:11.689Z,1.00
2023-03-12T05:27:38.529Z,1.00
2023-03-12T05:30:05.884Z,1.30
2023-03-12T05:32:32.501Z,1.00
2023-03-12T05:34:59.059Z,1.00
2023-03-12T05:37:25.771Z,1.30
2023-03-12T05:39:53.878Z,2.03
2023-03-12T05:42:20.506Z,1.10
2023-03-12T05:44:47.070Z,1.03
2023-03-12T05:47:13.651Z,1.10
2023-03-12T05:49:40.230Z,1.20
2023-03-12T05:52:06.770Z,1.03
2023-03-12T05:54:42.869Z,0.83
2023-03-12T05:57:09.415Z,0.90
2023-03-12T05:59:35.926Z,1.13
2023-03-12T06:02:02.640Z,0.90
2023-03-12T06:04:29.530Z,1.47
2023-03-12T06:06:56.416Z,1.30
2023-03-12T06:09:23.174Z,1.30
2023-03-12T06:11:49.704Z,0.50
2023-03-12T06:14:16.216Z,0.50
2023-03-12T06:16:42.795Z,0.43
2023-03-12T06:19:14.071Z,0.50
2023-03-12T06:21:42.347Z,0.50
2023-03-12T06:24:08.881Z,0.70
2023-03-12T06:26:35.490Z,0.67
2023-03-12T06:29:02.094Z,0.60
2023-03-12T06:31:28.715Z,1.07
2023-03-12T06:33:55.226Z,1.20
2023-03-12T06:36:23.369Z,0.90
2023-03-12T06:38:50.076Z,1.00
2023-03-12T06:41:17.380Z,1.37
2023-03-12T06:43:44.582Z,0.97
2023-03-12T06:46:12.569Z,1.10
2023-03-12T06:48:41.463Z,0.80
2023-03-12T06:51:26.789Z,1.00
2023-03-12T06:53:53.409Z,0.80
2023-03-12T07:03:41.402Z,1.10
2023-03-12T07:06:13.715Z,0.90
2023-03-12T07:08:40.250Z,1.77
2023-03-12T07:11:06.834Z,1.20
2023-03-12T07:13:33.310Z,0.90
2023-03-12T07:15:59.936Z,0.57
2023-03-12T07:18:26.527Z,0.90
2023-03-12T07:20:53.227Z,0.57
2023-03-12T07:23:20.173Z,0.80
2023-03-12T07:29:34.035Z,0.87
2023-03-12T07:32:00.675Z,9.43
2023-03-12T07:34:27.294Z,1.30
2023-03-12T07:36:54.994Z,6.70
2023-03-12T07:39:21.593Z,1.33
2023-03-12T07:41:50.466Z,1.70
2023-03-12T07:44:17.244Z,4.90
2023-03-12T07:46:43.822Z,2.03
2023-03-12T07:49:10.326Z,2.00
2023-03-12T07:51:36.837Z,2.07
2023-03-12T07:54:12.749Z,1.83
2023-03-12T07:56:39.488Z,1.57
2023-03-12T07:59:06.245Z,1.20
2023-03-12T08:01:32.981Z,1.60
2023-03-12T08:03:59.644Z,1.43
2023-03-12T08:06:26.765Z,1.70
2023-03-12T08:08:53.430Z,1.70
2023-03-12T08:11:20.035Z,1.63
2023-03-12T08:13:46.599Z,1.20
2023-03-12T08:16:14.818Z,1.10
2023-03-12T08:18:43.178Z,0.83
2023-03-12T08:21:09.720Z,0.50
2023-03-12T08:23:36.288Z,0.80
2023-03-12T08:26:03.170Z,0.67
2023-03-12T08:28:29.643Z,0.90
2023-03-12T08:30:56.285Z,1.07
2023-03-12T08:33:22.831Z,2.00
2023-03-12T08:35:49.479Z,1.03
2023-03-12T08:38:16.015Z,0.77
2023-03-12T08:40:42.541Z,1.20
2023-03-12T08:43:12.147Z,1.13
2023-03-12T08:45:38.778Z,0.80
2023-03-12T08:48:06.031Z,1.50
2023-03-12T08:50:33.241Z,1.70
2023-03-12T08:52:59.936Z,2.20
2023-03-12T08:55:29.538Z,1.13
2023-03-12T08:57:56.683Z,1.20
2023-03-12T09:00:23.335Z,0.57
2023-03-12T09:02:52.157Z,0.70
2023-03-12T09:05:19.372Z,0.80
2023-03-12T09:07:45.892Z,1.10
2023-03-12T09:10:12.486Z,0.77
2023-03-12T09:12:39.118Z,0.60
2023-03-12T09:15:06.313Z,0.80
2023-03-12T09:21:22.401Z,0.57
2023-03-12T09:23:49.586Z,1.83
2023-03-12T09:26:16.223Z,0.83
2023-03-12T09:28:47.637Z,1.90
2023-03-12T09:35:02.306Z,1.30
2023-03-12T09:37:33.454Z,0.27
2023-03-12T09:40:00.432Z,0.30
2023-03-12T09:42:35.826Z,0.80
2023-03-12T09:45:04.648Z,1.10
2023-03-12T09:54:52.396Z,1.20
2023-03-12T09:57:22.933Z,0.87
2023-03-12T09:59:50.168Z,0.90
2023-03-12T10:06:11.350Z,1.07
2023-03-12T10:08:54.321Z,1.50
2023-03-12T10:11:27.281Z,1.10
2023-03-12T10:13:58.768Z,1.00
2023-03-12T10:16:34.499Z,1.00
2023-03-12T10:19:07.064Z,0.80
2023-03-12T10:22:17.941Z,0.90
2023-03-12T10:24:59.834Z,0.50
2023-03-12T10:27:28.658Z,1.20
2023-03-12T10:29:55.496Z,0.83
2023-03-12T10:32:40.864Z,1.53
2023-03-12T10:35:14.547Z,1.10
2023-03-12T10:37:43.843Z,0.87
2023-03-12T10:40:18.193Z,0.50
2023-03-12T10:42:44.728Z,0.70
2023-03-12T10:45:11.261Z,0.60
2023-03-12T10:47:44.975Z,0.70
2023-03-12T10:50:22.042Z,0.80
2023-03-12T10:52:50.075Z,0.87
2023-03-12T10:55:17.110Z,0.70
2023-03-12T10:57:44.620Z,1.10
2023-03-12T11:00:24.178Z,1.50
2023-03-12T11:03:06.679Z,0.80
2023-03-12T11:05:33.233Z,1.27
2023-03-12T11:11:41.199Z,1.50
2023-03-12T11:14:10.640Z,1.47
2023-03-12T11:16:37.193Z,1.60
2023-03-12T11:19:04.840Z,0.80
2023-03-12T11:21:32.747Z,0.80
2023-03-12T11:23:59.282Z,1.10
2023-03-12T11:26:34.015Z,0.63
2023-03-12T11:29:09.634Z,1.93
2023-03-12T11:31:39.082Z,0.80
2023-03-12T11:34:06.592Z,0.90
2023-03-12T11:40:01.208Z,1.60
2023-03-12T11:42:33.959Z,6.53
2023-03-12T11:45:07.733Z,1.23
2023-03-12T11:51:41.899Z,1.07
2023-03-12T11:54:28.657Z,0.90
2023-03-12T11:57:21.332Z,11.10
2023-03-12T12:00:11.001Z,1.20
2023-03-12T12:10:06.678Z,3.13
2023-03-12T12:12:39.753Z,4.07
2023-03-12T12:15:22.889Z,2.27
2023-03-12T12:18:14.181Z,1.73
2023-03-12T12:20:49.011Z,1.40
2023-03-12T12:23:37.655Z,0.93
2023-03-12T12:37:36.577Z,0.80
2023-03-12T12:40:21.155Z,1.30
2023-03-12T12:42:52.333Z,1.50
2023-03-12T12:45:19.681Z,1.50
2023-03-12T12:48:08.022Z,1.10
2023-03-12T12:50:37.071Z,1.63
2023-03-12T12:53:07.746Z,1.63
2023-03-12T12:55:37.965Z,1.30
2023-03-12T12:58:24.453Z,1.37
2023-03-12T13:00:55.779Z,1.40
2023-03-12T13:03:23.594Z,1.83
2023-03-12T13:05:52.920Z,2.97
2023-03-12T13:08:42.343Z,3.17
2023-03-12T13:11:19.764Z,3.97
2023-03-12T13:13:49.156Z,1.30
2023-03-12T13:16:33.752Z,1.90
2023-03-12T13:19:01.472Z,2.10
2023-03-12T13:21:36.624Z,1.87
2023-03-12T13:24:07.459Z,2.20
2023-03-12T13:26:46.512Z,1.10
2023-03-12T13:29:20.757Z,1.63
2023-03-12T13:31:47.498Z,0.97
2023-03-12T13:34:16.982Z,1.30
2023-03-12T13:36:47.297Z,2.20
2023-03-12T13:39:16.542Z,2.43
2023-03-12T13:41:46.068Z,1.57
2023-03-12T13:44:29.054Z,2.67
2023-03-12T13:47:13.981Z,4.40
2023-03-12T13:49:40.549Z,2.60
2023-03-12T14:03:33.773Z,2.90
2023-03-12T14:06:13.950Z,2.33
2023-03-12T14:08:46.381Z,1.90
2023-03-12T14:11:33.491Z,1.20
2023-03-12T14:14:08.883Z,1.27
2023-03-12T14:16:40.683Z,1.40
2023-03-12T14:19:07.790Z,1.90
2023-03-12T14:21:35.849Z,1.20
2023-03-12T14:24:22.133Z,1.77
2023-03-12T14:26:48.954Z,1.60
2023-03-12T14:29:19.927Z,1.80
2023-03-12T14:31:47.451Z,3.00
2023-03-12T14:34:28.948Z,3.50
2023-03-12T14:36:55.473Z,3.30
2023-03-12T14:39:27.748Z,1.50
2023-03-12T14:41:57.500Z,2.80
2023-03-12T14:44:25.228Z,3.23
2023-03-12T14:47:02.243Z,5.53
2023-03-12T14:49:29.925Z,3.50
2023-03-12T14:51:56.939Z,2.57
2023-03-12T14:54:24.981Z,3.30
2023-03-12T14:56:51.848Z,1.70
2023-03-12T14:59:32.118Z,1.73
2023-03-12T15:02:04.190Z,2.10
2023-03-12T15:04:33.179Z,3.70
2023-03-12T15:07:04.431Z,2.93
2023-03-12T15:09:32.784Z,2.97
2023-03-12T15:12:04.185Z,2.00
2023-03-12T15:14:34.024Z,2.30
2023-03-12T15:17:00.690Z,2.47
2023-03-12T15:19:29.202Z,2.23
2023-03-12T15:21:56.124Z,3.17
2023-03-12T15:24:22.943Z,7.20
2023-03-12T15:26:49.462Z,6.37
2023-03-12T15:29:29.124Z,2.30
2023-03-12T15:31:59.896Z,1.77
2023-03-12T15:34:32.154Z,1.90
2023-03-12T15:37:00.124Z,1.70
2023-03-12T15:39:36.048Z,1.90
2023-03-12T15:42:08.251Z,2.00
2023-03-12T15:45:04.283Z,3.13
2023-03-12T15:51:14.758Z,2.90
2023-03-12T15:53:41.311Z,3.80
2023-03-12T15:56:10.410Z,18.13
2023-03-12T15:58:38.502Z,5.90
2023-03-12T16:01:08.278Z,6.30
2023-03-12T16:03:35.000Z,6.53
2023-03-12T16:06:01.597Z,5.60
2023-03-12T16:08:34.321Z,4.77
2023-03-12T16:11:00.820Z,6.70
2023-03-12T16:13:31.260Z,5.30
2023-03-12T16:15:58.377Z,6.27
2023-03-12T16:18:25.164Z,8.53
2023-03-12T16:20:52.553Z,10.33
2023-03-12T16:23:19.450Z,9.53
2023-03-12T16:25:47.488Z,5.80
2023-03-12T16:28:15.292Z,6.97
2023-03-12T16:30:41.885Z,5.50
2023-03-12T16:33:09.416Z,6.20
2023-03-12T16:35:36.515Z,6.13
2023-03-12T16:38:03.613Z,4.00
2023-03-12T16:40:34.841Z,6.43
2023-03-12T16:43:04.055Z,5.73
2023-03-12T16:45:31.674Z,7.37
2023-03-12T16:47:59.184Z,6.67
2023-03-12T16:50:26.158Z,6.70
2023-03-12T16:52:52.821Z,5.03
2023-03-12T16:55:20.166Z,5.17
2023-03-12T16:57:57.869Z,5.93
2023-03-12T17:00:27.978Z,10.67
2023-03-12T17:02:57.889Z,7.20
2023-03-12T17:06:01.800Z,16.83
2023-03-12T17:08:28.333Z,9.60
2023-03-12T17:10:55.465Z,10.23
2023-03-12T17:13:23.933Z,7.33
2023-03-12T17:15:50.872Z,7.00
2023-03-12T17:18:17.843Z,8.10
2023-03-12T17:20:44.700Z,13.17
2023-03-12T17:23:11.360Z,12.77
2023-03-12T17:25:39.584Z,12.40
2023-03-12T17:28:19.550Z,13.73
2023-03-12T17:30:47.421Z,10.23
2023-03-12T17:33:25.490Z,13.50
2023-03-12T17:36:20.056Z,9.83
2023-03-12T17:38:47.599Z,5.53
2023-03-12T17:41:26.112Z,5.77
2023-03-12T17:43:55.015Z,10.87
2023-03-12T17:50:02.264Z,13.50
2023-03-12T17:52:28.893Z,42.40
2023-03-12T17:54:55.429Z,33.27
2023-03-12T17:57:22.901Z,25.63
2023-03-12T18:00:13.220Z,19.23
2023-03-12T18:02:40.978Z,20.23
2023-03-12T18:05:08.064Z,31.17
2023-03-12T18:07:34.733Z,34.70
2023-03-12T18:10:01.375Z,30.53
2023-03-12T18:12:28.211Z,25.20
2023-03-12T18:14:54.879Z,24.30
2023-03-12T18:17:21.488Z,33.03
2023-03-12T18:19:48.025Z,36.87
2023-03-12T18:22:14.847Z,30.33
2023-03-12T18:24:41.929Z,25.53
2023-03-12T18:27:08.501Z,28.40
2023-03-12T18:29:36.880Z,26.47
2023-03-12T18:32:03.980Z,21.50
2023-03-12T18:34:30.529Z,20.13
2023-03-12T18:36:57.110Z,20.30
2023-03-12T18:39:23.766Z,18.37
2023-03-12T18:41:50.356Z,15.17
2023-03-12T18:44:16.931Z,15.50
2023-03-12T18:50:12.613Z,17.33
2023-03-12T18:52:39.200Z,17.03
2023-03-12T18:55:06.023Z,17.27
2023-03-12T18:57:32.826Z,18.20
2023-03-12T19:00:00.169Z,16.80
2023-03-12T19:02:26.817Z,16.63
2023-03-12T19:04:56.027Z,16.67
2023-03-12T19:07:22.887Z,16.40
2023-03-12T19:09:49.509Z,15.13
2023-03-12T19:12:16.095Z,38.63
2023-03-12T19:14:42.693Z,33.97
2023-03-12T19:17:09.239Z,31.70
2023-03-12T19:19:35.837Z,21.13
2023-03-12T19:22:02.594Z,18.17
2023-03-12T19:31:56.952Z,22.57
2023-03-12T19:34:31.932Z,24.80
2023-03-12T19:36:58.420Z,29.73
2023-03-12T19:39:25.120Z,32.83
2023-03-12T19:41:59.370Z,36.27
2023-03-12T19:44:26.224Z,34.23
2023-03-12T19:46:52.843Z,31.63
2023-03-12T19:49:19.429Z,29.93
2023-03-12T19:51:46.087Z,24.10
2023-03-12T19:54:12.765Z,24.07
2023-03-12T19:56:46.519Z,23.93
2023-03-12T19:59:13.150Z,24.00
2023-03-12T20:01:41.434Z,23.43
2023-03-12T20:04:11.620Z,26.13
2023-03-12T20:06:38.486Z,31.07
2023-03-12T20:09:07.973Z,30.47
2023-03-12T20:11:35.755Z,30.13
2023-03-12T20:14:08.730Z,31.23
2023-03-12T20:16:36.707Z,32.50
2023-03-12T20:19:05.706Z,35.57
2023-03-12T20:21:35.068Z,43.30
2023-03-12T20:24:02.423Z,39.63
2023-03-12T20:26:29.083Z,36.97
2023-03-12T20:28:55.622Z,37.70
2023-03-12T20:31:22.176Z,36.73
2023-03-12T20:33:48.713Z,30.00
2023-03-12T20:36:15.303Z,27.57
2023-03-12T20:38:43.411Z,22.93
2023-03-12T20:45:02.650Z,32.17
2023-03-12T20:47:29.264Z,29.10
2023-03-12T20:49:55.812Z,25.57
2023-03-12T20:52:22.316Z,24.83
2023-03-12T20:54:48.974Z,24.43
2023-03-12T21:00:56.554Z,21.50
2023-03-12T21:03:24.720Z,23.73
2023-03-12T21:05:55.354Z,23.50
2023-03-12T21:08:22.616Z,22.93
2023-03-12T21:10:51.189Z,20.97
2023-03-12T21:13:18.537Z,20.60
2023-03-12T21:15:45.375Z,20.40
2023-03-12T21:18:12.062Z,20.40
2023-03-12T21:20:39.688Z,21.23
2023-03-12T21:23:07.174Z,22.93
2023-03-12T21:25:37.438Z,23.97
2023-03-12T21:28:04.717Z,23.10
2023-03-12T21:30:31.828Z,20.53
2023-03-12T21:32:58.553Z,19.57
2023-03-12T21:35:26.686Z,19.07
2023-03-12T21:41:41.176Z,18.33
2023-03-12T21:44:07.830Z,17.77
2023-03-12T21:46:34.724Z,18.53
2023-03-12T21:49:01.430Z,18.40
2023-03-12T21:51:28.235Z,20.53
2023-03-12T21:53:55.473Z,18.50
2023-03-12T21:56:22.545Z,19.60
2023-03-12T21:58:49.163Z,20.57
2023-03-12T22:01:16.881Z,19.43
2023-03-12T22:03:46.332Z,20.43
2023-03-12T22:06:13.546Z,21.57
2023-03-12T22:08:40.479Z,20.23
2023-03-12T22:11:07.490Z,18.63
2023-03-12T22:13:34.063Z,17.00
2023-03-12T22:16:01.871Z,17.50
2023-03-12T22:18:28.944Z,16.63
2023-03-12T22:28:42.581Z,13.93
2023-03-12T22:31:09.713Z,14.07
2023-03-12T22:33:36.872Z,15.13
2023-03-12T22:36:07.693Z,14.87
2023-03-12T22:38:34.398Z,15.00
2023-03-12T22:44:43.838Z,15.47
2023-03-12T22:47:10.385Z,18.63
2023-03-12T22:49:36.878Z,16.80
2023-03-12T22:52:03.454Z,16.97
2023-03-12T22:58:17.082Z,17.20
2023-03-12T23:00:43.669Z,16.47
2023-03-12T23:03:18.009Z,16.10
2023-03-12T23:05:44.565Z,15.57
2023-03-12T23:08:11.086Z,16.33
2023-03-12T23:10:37.722Z,17.73
2023-03-12T23:13:04.547Z,16.57
2023-03-12T23:15:40.544Z,17.07
2023-03-12T23:18:19.924Z,17.13
2023-03-12T23:20:46.998Z,17.47
2023-03-12T23:23:15.704Z,17.10
2023-03-12T23:25:42.252Z,18.00
2023-03-12T23:28:08.810Z,18.70
2023-03-12T23:30:35.364Z,19.13
2023-03-12T23:33:02.165Z,19.33
2023-03-12T23:35:28.927Z,15.23
2023-03-12T23:37:56.540Z,15.00
2023-03-12T23:40:23.095Z,15.47
2023-03-12T23:42:49.601Z,15.80
2023-03-12T23:45:16.133Z,14.33
2023-03-12T23:47:42.670Z,13.57
2023-03-12T23:50:09.556Z,14.60
2023-03-12T23:52:36.096Z,14.30
2023-03-12T23:55:02.617Z,14.40
2023-03-12T23:57:29.448Z,14.27
